Aeroporto :
LOGIN :

Iscrizione | Disclaimer

   EN    FR    IT 

 










Sommario :    VFR   VFR Marginale   IFR   IFR Intensivo   IFR Molto Intensivo
Visibilità : 
Base nubi : 
>= 8 km
>= 3000ft
5 / 8 km
1000 / 3000 ft
1500m / 5 km
500 / 1000 ft
800 / 1500m
200 / 500 ft
< 800m
< 200 ft
Simboli :   Temporali  Nebbia  Neve Forte  Precipitazioni Forti  Vento > 20 kt
SIGMETs :   Varie  Temporali  Ghiacco  Turbolenza  Onda orograficha  Ceneri Vulcaniche






- Altitudine del aeroporto : 125 ft
- Codice IATA : MGL


EDLN - Mönchengladbach

ULTIMO METAR :
  • 181020Z VRB03KT CAVOK 29/18 Q1012

METARs OBSOLETI :
  • 180950Z VRB02KT CAVOK 28/18 Q1012
  • 180920Z VRB02KT CAVOK 27/19 Q1013
  • 180850Z 09004KT 050V130 CAVOK 26/20 Q1013
  • 180820Z 10003KT 050V150 CAVOK 25/20 Q1013

TAF TAF EDLN
Valido dal 18 a 09 ore il 18 a 18 ore UTC


180800Z 1809/1818 VRB03KT CAVOK
BECMG 1809/1810 02005KT
BECMG 1810/1812 16008KT
PROB30
TEMPO 1814/1818 20020G45KT 3000 +TSRAGR SCT030CB



MetMap, La meteo Aeronautica in un colpo d'occhio ! - Copyright ORBIFLY Dicembre 2007 - Disclaimer

ORBIFLY MET'MAP TEAM :

Programmazione e sviluppo : Alexandra Zaïnal
Concezione : Baudouin d'Aumeries
Aiuto per la programmazione : Marc-Olivier Méhu
Supporto tecnico e logistico : Manuel Goepfert
Aiuto per la traduzione : Arnaldo La Scala

Contatto : metmap@orbifly.com




FONTI E CREDITI :

   NOAA